CheckWX is a tool to help pilots better visualize weather data.  It is not intended as a substitute for an official pre-flight weather briefing.

03:01:22 UTC

KELA METAR
Eagle Lake Airport
Eagle Lake, Texas, USA
Current

26 mins ago

KELA 240235Z AUTO 15008KT 10SM BKN027 BKN033 18/16 A3009 RMK AO2 T01800155
Observed
Mar-24 @ 02:35 UTC
Wind
  • 150° at 8 KTS
Visibility
10 SM
Flight Rules
MVFR
Cloud Levels
  • Broken at 2,700' AGL
  • Broken at 3,300' AGL
Temperature
18°C / 64°F
Dewpoint
16°C / 61°F
Humidity
88%
Altimeter
30.09" Hg
Pressure
1018.92 hPa
Previous

46 mins ago

KELA 240215Z AUTO 16007KT 10SM CLR 18/16 A3010 RMK AO2 T01830155
Observed
Mar-24 @ 02:15 UTC
Wind
  • 160° at 7 KTS
Visibility
10 SM
Flight Rules
VFR
Cloud Levels
  • Clear skies
Temperature
18°C / 64°F
Dewpoint
16°C / 61°F
Humidity
88%
Altimeter
30.1" Hg
Pressure
1019.32 hPa
Previous

1 hour ago

KELA 240155Z AUTO 15008KT 10SM CLR 19/16 A3009 RMK AO2 T01850155
Observed
Mar-24 @ 01:55 UTC
Wind
  • 150° at 8 KTS
Visibility
10 SM
Flight Rules
VFR
Cloud Levels
  • Clear skies
Temperature
19°C / 66°F
Dewpoint
16°C / 61°F
Humidity
83%
Altimeter
30.09" Hg
Pressure
1018.92 hPa